Impacts TAF Board INFO
FOR SITUATIONAL AWARENESS. NOT TO BE USED FOR FLIGHT PLANNING PURPOSES.
IDs:

KANB - Anniston Metro, AL, US

Issued at 1124 UTC 24 Feb 2018
Updated at 1142 UTC 24 Feb 2018
Potential Impact None Slight Moderate High
Time<<25/00Z 25/01Z 25/02Z 25/03Z 25/04Z 25/05Z 25/06Z 25/07Z 25/08Z 25/09Z 25/10Z 25/11Z 25/12Z>>
Type PRVL PRVL PRVL PRVL PRVL PRVL PRVL PRVL PRVL PRVL PRVL PRVL
VIS >6 >6 >6 >6 >6 >6 >6 >6 >6 >6 >6 >6
CIG 50 50 50 50 50 50 50 50 50 15 15 15
Cover BKN BKN BKN BKN BKN BKN BKN BKN BKN OVC OVC OVC
FltCat VFR VFR VFR VFR VFR VFR VFR VFR VFR MVFR MVFR MVFR
WX -- -- -- -- -- -- -- -- -- -- -- --
WDir 190 190 190 190 190 190 190 190 190 190 190 190
WSpd 12 12 12 12 12 12 12 12 12 12 12 12
WGst 20 20 20 20 20 20 20 20 20 20 20 20

Raw TAF
KANB 241124Z 2412/2512 21005KT P6SM BKN070
  FM241800 19012G20KT P6SM BKN050
  FM250900 19012G20KT P6SM OVC015


METAR Board
Radar Display
Forecast Discussion

FOR SITUATIONAL AWARENESS. NOT TO BE USED FOR FLIGHT PLANNING PURPOSES.